createdAt,value
2019-04-20T00:00:48.779Z,0.00
2019-04-20T00:01:44.896Z,0.00
2019-04-20T00:02:50.080Z,0.00
2019-04-20T00:03:45.671Z,0.00
2019-04-20T00:04:45.199Z,0.00
2019-04-20T00:05:45.437Z,0.00
2019-04-20T00:06:48.521Z,0.00
2019-04-20T00:07:44.278Z,0.00
2019-04-20T00:08:45.856Z,0.00
2019-04-20T00:09:52.446Z,0.00
2019-04-20T00:10:54.273Z,0.00
2019-04-20T00:11:53.296Z,0.00
2019-04-20T00:12:58.255Z,0.00
2019-04-20T00:13:52.760Z,0.00
2019-04-20T00:14:44.418Z,0.00
2019-04-20T00:15:45.098Z,0.00
2019-04-20T00:16:44.460Z,0.00
2019-04-20T00:17:50.847Z,0.00
2019-04-20T00:18:48.895Z,0.00
2019-04-20T00:19:49.080Z,0.00
2019-04-20T00:20:45.737Z,0.00
2019-04-20T00:21:50.664Z,0.00
2019-04-20T00:22:48.704Z,0.00
2019-04-20T00:23:46.808Z,0.00
2019-04-20T00:24:45.424Z,0.00
2019-04-20T00:25:54.910Z,0.00
2019-04-20T00:27:09.185Z,0.00
2019-04-20T00:28:08.591Z,0.00
2019-04-20T00:29:04.498Z,0.00
2019-04-20T00:29:58.842Z,0.00
2019-04-20T00:31:01.147Z,0.00
2019-04-20T00:31:58.387Z,0.00
2019-04-20T00:32:57.870Z,0.00
2019-04-20T00:33:56.104Z,0.00
2019-04-20T00:34:47.122Z,0.00
2019-04-20T00:35:44.835Z,0.00
2019-04-20T00:36:45.305Z,0.00
2019-04-20T00:37:44.874Z,0.00
2019-04-20T00:38:51.011Z,0.00
2019-04-20T00:39:44.917Z,0.00
2019-04-20T00:40:45.515Z,0.00
2019-04-20T00:41:53.101Z,0.00
2019-04-20T00:42:50.651Z,0.00
2019-04-20T00:43:45.664Z,0.00
2019-04-20T00:44:49.602Z,0.00
2019-04-20T00:45:51.557Z,0.00
2019-04-20T00:46:57.361Z,0.00
2019-04-20T00:47:52.759Z,0.00
2019-04-20T00:48:53.768Z,0.00
2019-04-20T00:49:57.841Z,0.00
2019-04-20T00:51:00.961Z,0.00
2019-04-20T00:53:02.273Z,0.00
2019-04-20T00:53:48.957Z,0.00
2019-04-20T00:54:45.352Z,0.00
2019-04-20T00:55:46.393Z,0.00
2019-04-20T00:56:45.484Z,0.00
2019-04-20T00:57:51.411Z,0.00
2019-04-20T00:59:03.003Z,0.00
2019-04-20T01:00:04.889Z,0.00
2019-04-20T01:01:07.330Z,0.00
2019-04-20T01:02:04.036Z,0.00
2019-04-20T01:02:54.113Z,0.00
2019-04-20T01:04:07.092Z,0.00
2019-04-20T01:05:04.478Z,0.00
2019-04-20T01:06:07.924Z,0.00
2019-04-20T01:06:57.539Z,0.00
2019-04-20T01:07:50.491Z,0.00
2019-04-20T01:08:46.399Z,0.00
2019-04-20T01:09:45.552Z,0.00
2019-04-20T01:10:51.003Z,0.00
2019-04-20T01:11:48.244Z,0.00
2019-04-20T01:12:45.827Z,0.00
2019-04-20T01:13:50.839Z,0.00
2019-04-20T01:14:52.118Z,0.00
2019-04-20T01:15:54.083Z,0.00
2019-04-20T01:16:52.935Z,0.00
2019-04-20T01:17:45.667Z,0.00
2019-04-20T01:18:47.245Z,0.00
2019-04-20T01:19:48.806Z,0.00
2019-04-20T01:20:45.731Z,0.00
2019-04-20T01:21:54.607Z,0.00
2019-04-20T01:22:53.580Z,0.00
2019-04-20T01:23:52.528Z,0.00
2019-04-20T01:24:48.283Z,0.00
2019-04-20T01:25:51.983Z,0.00
2019-04-20T01:26:50.548Z,0.00
2019-04-20T01:28:06.095Z,0.00
2019-04-20T01:28:59.068Z,0.00
2019-04-20T01:29:51.601Z,0.00
2019-04-20T01:31:03.737Z,0.00
2019-04-20T01:32:02.216Z,0.00
2019-04-20T01:32:59.961Z,0.00
2019-04-20T01:33:55.033Z,0.00
2019-04-20T01:34:55.240Z,0.00
2019-04-20T01:35:56.891Z,0.00
2019-04-20T01:37:02.971Z,0.00
2019-04-20T01:38:07.350Z,0.00
2019-04-20T01:39:00.180Z,0.00
2019-04-20T01:39:52.098Z,0.00
2019-04-20T01:40:46.436Z,0.00
2019-04-20T01:41:47.556Z,0.00
2019-04-20T01:42:46.757Z,0.00
2019-04-20T01:43:46.238Z,0.00
2019-04-20T01:44:49.213Z,0.00
2019-04-20T01:45:47.638Z,0.00
2019-04-20T01:46:51.936Z,0.00
2019-04-20T01:47:52.339Z,0.00
2019-04-20T01:48:46.373Z,0.00
2019-04-20T01:49:47.729Z,0.00
2019-04-20T01:50:55.017Z,0.00
2019-04-20T01:51:57.736Z,0.00
2019-04-20T01:52:58.354Z,0.00
2019-04-20T01:54:02.414Z,0.00
2019-04-20T01:55:04.770Z,0.00
2019-04-20T01:56:05.358Z,0.00
2019-04-20T01:56:59.234Z,0.00
2019-04-20T01:58:07.970Z,0.00
2019-04-20T01:59:09.240Z,0.00
2019-04-20T01:59:57.165Z,0.00
2019-04-20T02:00:48.056Z,0.00
2019-04-20T02:01:47.449Z,0.00
2019-04-20T02:02:52.050Z,0.00
2019-04-20T02:03:50.444Z,0.00
2019-04-20T02:04:49.268Z,0.00
2019-04-20T02:05:54.485Z,0.00
2019-04-20T02:06:52.084Z,0.00
2019-04-20T02:07:49.352Z,0.00
2019-04-20T02:08:51.734Z,0.00
2019-04-20T02:09:53.399Z,0.00
2019-04-20T02:10:52.281Z,0.00
2019-04-20T02:11:50.262Z,0.00
2019-04-20T02:12:50.313Z,0.00
2019-04-20T02:13:51.632Z,0.00
2019-04-20T02:14:52.205Z,0.00
2019-04-20T02:15:51.190Z,0.00
2019-04-20T02:16:51.534Z,0.00
2019-04-20T02:18:03.160Z,0.00
2019-04-20T02:19:06.706Z,0.00
2019-04-20T02:20:05.511Z,0.00
2019-04-20T02:21:07.289Z,0.00
2019-04-20T02:22:03.619Z,0.00
2019-04-20T02:23:03.210Z,0.00
2019-04-20T02:23:53.069Z,0.00
2019-04-20T02:24:46.974Z,0.00
2019-04-20T02:25:48.056Z,0.00
2019-04-20T02:26:47.266Z,0.00
2019-04-20T02:27:53.370Z,0.00
2019-04-20T02:29:12.211Z,0.00
2019-04-20T02:30:13.849Z,0.00
2019-04-20T02:31:23.061Z,0.00
2019-04-20T02:33:29.563Z,0.00
2019-04-20T02:34:25.697Z,0.00
2019-04-20T02:35:16.790Z,0.00
2019-04-20T02:36:29.915Z,0.00
2019-04-20T02:38:25.121Z,0.00
2019-04-20T02:39:31.362Z,0.00
2019-04-20T02:40:15.907Z,0.00
2019-04-20T02:41:18.227Z,0.00
2019-04-20T02:42:24.250Z,0.00
2019-04-20T02:44:28.000Z,0.00
2019-04-20T02:45:28.896Z,0.00
2019-04-20T02:46:20.376Z,0.00
2019-04-20T02:47:21.051Z,0.00
2019-04-20T02:48:16.000Z,0.00
2019-04-20T02:49:29.983Z,0.00
2019-04-20T02:51:31.277Z,0.00
2019-04-20T02:52:21.030Z,0.00
2019-04-20T02:55:31.276Z,0.00
2019-04-20T02:56:29.981Z,0.00
2019-04-20T02:57:26.164Z,0.00
2019-04-20T02:58:18.675Z,0.00
2019-04-20T02:59:47.339Z,0.00
2019-04-20T03:00:12.306Z,0.00
2019-04-20T03:01:13.186Z,0.00
2019-04-20T03:02:05.772Z,0.00
2019-04-20T03:03:00.139Z,0.00
2019-04-20T03:03:52.688Z,0.00
2019-04-20T03:05:00.205Z,0.00
2019-04-20T03:06:06.398Z,0.00
2019-04-20T03:07:03.868Z,0.00
2019-04-20T03:08:08.953Z,0.00
2019-04-20T03:09:08.915Z,0.00
2019-04-20T03:10:08.425Z,0.00
2019-04-20T03:11:17.758Z,0.00
2019-04-20T03:12:08.188Z,0.00
2019-04-20T03:13:08.800Z,0.00
2019-04-20T03:14:03.698Z,0.00
2019-04-20T03:15:05.075Z,0.00
2019-04-20T03:16:04.474Z,0.00
2019-04-20T03:17:10.339Z,0.00
2019-04-20T03:18:12.037Z,0.00
2019-04-20T03:19:03.139Z,0.00
2019-04-20T03:20:03.276Z,0.00
2019-04-20T03:21:13.978Z,0.00
2019-04-20T03:22:19.184Z,0.00
2019-04-20T03:24:13.201Z,0.00
2019-04-20T03:25:12.461Z,0.00
2019-04-20T03:26:13.849Z,0.00
2019-04-20T03:27:07.123Z,0.00
2019-04-20T03:28:11.802Z,0.00
2019-04-20T03:29:01.764Z,0.00
2019-04-20T03:30:22.344Z,0.00
2019-04-20T03:31:31.291Z,0.00
2019-04-20T03:32:44.891Z,0.00
2019-04-20T03:33:24.510Z,0.00
2019-04-20T03:34:40.617Z,0.00
2019-04-20T03:35:17.380Z,0.00
2019-04-20T03:36:18.333Z,0.00
2019-04-20T03:37:13.416Z,0.00
2019-04-20T03:38:10.415Z,0.00
2019-04-20T03:39:10.055Z,0.00
2019-04-20T03:40:07.328Z,0.00
2019-04-20T03:41:04.034Z,0.00
2019-04-20T03:41:52.466Z,0.00
2019-04-20T03:42:48.715Z,0.00
2019-04-20T03:43:49.714Z,0.00
2019-04-20T03:44:56.427Z,0.00
2019-04-20T03:45:57.237Z,0.00
2019-04-20T03:46:57.015Z,0.00
2019-04-20T03:48:00.673Z,0.00
2019-04-20T03:49:05.713Z,0.00
2019-04-20T03:50:10.710Z,0.00
2019-04-20T03:51:07.291Z,0.00
2019-04-20T03:52:11.087Z,0.00
2019-04-20T03:53:12.848Z,0.00
2019-04-20T03:54:02.877Z,0.00
2019-04-20T03:55:07.268Z,0.00
2019-04-20T03:56:02.599Z,0.00
2019-04-20T03:57:13.577Z,0.00
2019-04-20T03:58:10.095Z,0.00
2019-04-20T03:59:05.546Z,0.00
2019-04-20T04:00:15.107Z,0.00
2019-04-20T04:01:03.842Z,0.00
2019-04-20T04:02:22.121Z,0.00
2019-04-20T04:03:24.954Z,0.00
2019-04-20T04:04:12.189Z,0.00
2019-04-20T04:06:03.067Z,0.00
2019-04-20T04:06:53.927Z,0.00
2019-04-20T04:08:02.267Z,0.00
2019-04-20T04:09:02.703Z,0.00
2019-04-20T04:10:08.171Z,0.00
2019-04-20T04:11:09.799Z,0.00
2019-04-20T04:12:03.948Z,0.00
2019-04-20T04:12:50.139Z,0.00
2019-04-20T04:13:50.305Z,0.00
2019-04-20T04:14:49.411Z,0.00
2019-04-20T04:15:56.789Z,0.00
2019-04-20T04:16:52.990Z,0.00
2019-04-20T04:17:50.375Z,0.00
2019-04-20T04:18:59.282Z,0.00
2019-04-20T04:19:55.810Z,0.00
2019-04-20T04:20:54.174Z,0.00
2019-04-20T04:22:04.198Z,0.00
2019-04-20T04:23:06.058Z,0.00
2019-04-20T04:24:07.160Z,0.00
2019-04-20T04:25:01.785Z,0.00
2019-04-20T04:26:05.852Z,0.00
2019-04-20T04:27:03.625Z,0.00
2019-04-20T04:28:09.800Z,5.63
2019-04-20T04:29:12.661Z,5.63
2019-04-20T04:30:08.074Z,5.63
2019-04-20T04:31:07.883Z,5.63
2019-04-20T04:32:14.094Z,5.63
2019-04-20T04:33:32.182Z,5.63
2019-04-20T04:34:07.662Z,5.63
2019-04-20T04:35:05.564Z,5.63
2019-04-20T04:36:08.655Z,5.63
2019-04-20T04:37:12.745Z,5.63
2019-04-20T04:38:06.931Z,5.63
2019-04-20T04:39:17.336Z,11.25
2019-04-20T04:40:22.509Z,11.25
2019-04-20T04:41:13.653Z,11.25
2019-04-20T04:42:19.127Z,11.25
2019-04-20T04:43:10.259Z,11.25
2019-04-20T04:44:09.578Z,11.25
2019-04-20T04:44:58.208Z,11.25
2019-04-20T04:45:49.629Z,11.25
2019-04-20T04:46:57.623Z,11.25
2019-04-20T04:47:49.665Z,16.88
2019-04-20T04:48:52.561Z,16.88
2019-04-20T04:49:58.170Z,16.88
2019-04-20T04:50:56.978Z,16.88
2019-04-20T04:51:58.556Z,16.88
2019-04-20T04:52:59.721Z,16.88
2019-04-20T04:53:59.357Z,16.88
2019-04-20T04:54:56.615Z,22.50
2019-04-20T04:55:57.509Z,22.50
2019-04-20T04:56:50.394Z,22.50
2019-04-20T04:57:49.850Z,22.50
2019-04-20T04:58:49.870Z,22.50
2019-04-20T04:59:50.830Z,22.50
2019-04-20T05:00:51.365Z,22.50
2019-04-20T05:01:53.244Z,28.13
2019-04-20T05:02:56.510Z,28.13
2019-04-20T05:04:15.532Z,28.13
2019-04-20T05:05:10.384Z,28.13
2019-04-20T05:06:06.476Z,28.13
2019-04-20T05:07:05.195Z,28.13
2019-04-20T05:08:01.588Z,28.13
2019-04-20T05:08:54.863Z,28.13
2019-04-20T05:09:50.701Z,33.75
2019-04-20T05:10:50.097Z,33.75
2019-04-20T05:11:59.752Z,33.75
2019-04-20T05:12:51.439Z,33.75
2019-04-20T05:13:56.672Z,33.75
2019-04-20T05:15:01.921Z,33.75
2019-04-20T05:16:05.219Z,33.75
2019-04-20T05:17:07.372Z,33.75
2019-04-20T05:18:12.840Z,33.75
2019-04-20T05:19:13.320Z,39.38
2019-04-20T05:20:10.541Z,39.38
2019-04-20T05:21:10.214Z,39.38
2019-04-20T05:22:26.210Z,45.00
2019-04-20T05:23:07.652Z,45.00
2019-04-20T05:24:08.562Z,45.00
2019-04-20T05:25:12.012Z,45.00
2019-04-20T05:26:14.223Z,45.00
2019-04-20T05:27:17.618Z,45.00
2019-04-20T05:28:06.740Z,45.00
2019-04-20T05:28:59.096Z,45.00
2019-04-20T05:29:50.898Z,45.00
2019-04-20T05:30:54.607Z,45.00
2019-04-20T05:31:56.295Z,45.00
2019-04-20T05:32:58.149Z,45.00
2019-04-20T05:34:15.983Z,45.00
2019-04-20T05:35:15.164Z,45.00
2019-04-20T05:36:12.323Z,50.63
2019-04-20T05:37:24.034Z,50.63
2019-04-20T05:38:15.334Z,50.63
2019-04-20T05:39:19.174Z,50.63
2019-04-20T05:40:16.259Z,50.63
2019-04-20T05:41:11.466Z,50.63
2019-04-20T05:42:16.187Z,50.63
2019-04-20T05:43:10.722Z,50.63
2019-04-20T05:44:04.651Z,50.63
2019-04-20T05:45:11.704Z,56.25
2019-04-20T05:46:15.831Z,56.25
2019-04-20T05:47:11.286Z,56.25
2019-04-20T05:48:09.111Z,56.25
2019-04-20T05:49:19.170Z,56.25
2019-04-20T05:50:06.415Z,56.25
2019-04-20T05:51:10.554Z,56.25
2019-04-20T05:52:24.323Z,56.25
2019-04-20T05:53:13.068Z,56.25
2019-04-20T05:54:17.931Z,56.25
2019-04-20T05:55:13.074Z,61.88
2019-04-20T05:56:10.240Z,61.88
2019-04-20T05:57:17.466Z,61.88
2019-04-20T05:58:08.840Z,61.88
2019-04-20T05:59:11.744Z,61.88
2019-04-20T06:00:14.661Z,61.88
2019-04-20T06:01:12.258Z,61.88
2019-04-20T06:02:17.274Z,61.88
2019-04-20T06:03:07.342Z,61.88
2019-04-20T06:04:10.410Z,61.88
2019-04-20T06:05:28.877Z,61.88
2019-04-20T06:06:07.889Z,61.88
2019-04-20T06:07:14.963Z,61.88
2019-04-20T06:08:22.332Z,67.50
2019-04-20T06:09:16.604Z,67.50
2019-04-20T06:10:19.062Z,67.50
2019-04-20T06:11:19.242Z,67.50
2019-04-20T06:12:33.108Z,67.50
2019-04-20T06:13:07.791Z,67.50
2019-04-20T06:14:02.406Z,67.50
2019-04-20T06:15:05.575Z,67.50
2019-04-20T06:16:07.341Z,67.50
2019-04-20T06:17:15.917Z,67.50
2019-04-20T06:18:07.032Z,67.50
2019-04-20T06:19:24.372Z,67.50
2019-04-20T06:20:12.627Z,67.50
2019-04-20T06:21:20.125Z,67.50
2019-04-20T06:22:19.273Z,67.50
2019-04-20T06:23:12.179Z,67.50
2019-04-20T06:24:18.372Z,67.50
2019-04-20T06:25:31.236Z,67.50
2019-04-20T06:26:28.230Z,67.50
2019-04-20T06:27:09.123Z,67.50
2019-04-20T06:28:06.570Z,67.50
2019-04-20T06:29:11.223Z,67.50
2019-04-20T06:30:08.592Z,67.50
2019-04-20T06:31:14.897Z,67.50
2019-04-20T06:32:23.474Z,73.13
2019-04-20T06:33:16.832Z,73.13
2019-04-20T06:35:25.912Z,73.13
2019-04-20T06:36:23.453Z,73.13
2019-04-20T06:37:09.963Z,73.13
2019-04-20T06:38:31.119Z,73.13
2019-04-20T06:39:16.303Z,73.13
2019-04-20T06:40:29.531Z,73.13
2019-04-20T06:41:45.317Z,73.13
2019-04-20T06:42:14.872Z,73.13
2019-04-20T06:43:13.198Z,73.13
2019-04-20T06:44:15.047Z,78.75
2019-04-20T06:45:23.213Z,78.75
2019-04-20T06:46:15.047Z,78.75
2019-04-20T06:47:15.819Z,78.75
2019-04-20T06:48:13.594Z,78.75
2019-04-20T06:49:19.664Z,78.75
2019-04-20T06:50:15.983Z,78.75
2019-04-20T06:51:09.280Z,78.75
2019-04-20T06:52:23.128Z,78.75
2019-04-20T06:53:20.749Z,78.75
2019-04-20T06:54:03.228Z,78.75
2019-04-20T06:55:08.260Z,78.75
2019-04-20T06:56:15.605Z,78.75
2019-04-20T06:57:15.075Z,78.75
2019-04-20T06:58:31.898Z,78.75
2019-04-20T06:59:19.852Z,78.75
2019-04-20T07:00:15.330Z,78.75
2019-04-20T07:01:15.276Z,84.38
2019-04-20T07:02:33.743Z,84.38
2019-04-20T07:03:18.417Z,84.38
2019-04-20T07:04:37.604Z,84.38
2019-04-20T07:05:27.413Z,84.38
2019-04-20T07:06:32.144Z,84.38
2019-04-20T07:07:14.616Z,84.38
2019-04-20T07:08:20.415Z,84.38
2019-04-20T07:09:15.286Z,84.38
2019-04-20T07:11:19.481Z,84.38
2019-04-20T07:12:13.051Z,84.38
2019-04-20T07:13:07.496Z,84.38
2019-04-20T07:14:01.137Z,84.38
2019-04-20T07:15:06.524Z,84.38
2019-04-20T07:16:15.444Z,84.38
2019-04-20T07:17:24.464Z,90.00
2019-04-20T07:18:15.731Z,90.00
2019-04-20T07:19:13.058Z,90.00
2019-04-20T07:20:14.574Z,90.00
2019-04-20T07:21:12.712Z,90.00
2019-04-20T07:22:25.994Z,90.00
2019-04-20T07:23:21.321Z,90.00
2019-04-20T07:24:20.981Z,90.00
2019-04-20T07:25:14.273Z,90.00
2019-04-20T07:26:21.043Z,90.00
2019-04-20T07:27:16.989Z,90.00
2019-04-20T07:28:19.661Z,90.00
2019-04-20T07:29:15.937Z,90.00
2019-04-20T07:30:12.282Z,95.63
2019-04-20T07:31:15.839Z,95.63
2019-04-20T07:32:06.417Z,95.63
2019-04-20T07:33:18.326Z,95.63
2019-04-20T07:34:15.704Z,95.63
2019-04-20T07:35:17.416Z,95.63
2019-04-20T07:36:19.521Z,95.63
2019-04-20T07:37:41.977Z,95.63
2019-04-20T07:39:15.843Z,95.63
2019-04-20T07:40:16.309Z,95.63
2019-04-20T07:41:24.875Z,95.63
2019-04-20T07:42:19.270Z,95.63
2019-04-20T07:43:08.186Z,95.63
2019-04-20T07:44:18.136Z,101.25
2019-04-20T07:45:21.618Z,101.25
2019-04-20T07:46:21.907Z,101.25
2019-04-20T07:47:24.132Z,101.25
2019-04-20T07:48:15.476Z,101.25
2019-04-20T07:49:12.871Z,106.88
2019-04-20T07:50:09.009Z,101.25
2019-04-20T07:51:04.922Z,101.25
2019-04-20T07:51:53.911Z,101.25
2019-04-20T07:53:10.815Z,101.25
2019-04-20T07:54:23.218Z,106.88
2019-04-20T07:56:13.134Z,106.88
2019-04-20T07:57:12.783Z,106.88
2019-04-20T07:58:05.040Z,106.88
2019-04-20T07:59:09.149Z,106.88
2019-04-20T08:00:17.131Z,106.88
2019-04-20T08:01:23.520Z,106.88
2019-04-20T08:02:23.576Z,106.88
2019-04-20T08:03:18.304Z,112.50
2019-04-20T08:04:13.611Z,112.50
2019-04-20T08:05:08.280Z,112.50
2019-04-20T08:06:02.310Z,112.50
2019-04-20T08:06:59.132Z,112.50
2019-04-20T08:08:10.520Z,112.50
2019-04-20T08:09:08.662Z,112.50
2019-04-20T08:10:00.342Z,118.13
2019-04-20T08:11:10.961Z,118.13
2019-04-20T08:12:22.127Z,118.13
2019-04-20T08:13:19.378Z,118.13
2019-04-20T08:14:18.204Z,118.13
2019-04-20T08:15:24.098Z,118.13
2019-04-20T08:16:14.958Z,118.13
2019-04-20T08:17:26.832Z,118.13
2019-04-20T08:18:16.883Z,118.13
2019-04-20T08:19:09.789Z,118.13
2019-04-20T08:20:15.933Z,118.13
2019-04-20T08:21:21.026Z,118.13
2019-04-20T08:22:21.464Z,123.75
2019-04-20T08:23:17.540Z,123.75
2019-04-20T08:24:14.642Z,123.75
2019-04-20T08:25:12.528Z,123.75
2019-04-20T08:26:01.757Z,123.75
2019-04-20T08:27:00.001Z,123.75
2019-04-20T08:27:55.045Z,123.75
2019-04-20T08:29:00.329Z,123.75
2019-04-20T08:30:09.202Z,123.75
2019-04-20T08:31:13.128Z,129.38
2019-04-20T08:32:13.031Z,129.38
2019-04-20T08:33:16.048Z,129.38
2019-04-20T08:34:18.548Z,129.38
2019-04-20T08:35:23.117Z,129.38
2019-04-20T08:36:19.994Z,129.38
2019-04-20T08:37:11.181Z,129.38
2019-04-20T08:38:38.303Z,129.38
2019-04-20T08:40:15.082Z,135.00
2019-04-20T08:41:15.291Z,135.00
2019-04-20T08:42:20.533Z,135.00
2019-04-20T08:43:30.901Z,135.00
2019-04-20T08:44:38.061Z,135.00
2019-04-20T08:45:16.582Z,135.00
2019-04-20T08:46:15.984Z,135.00
2019-04-20T08:47:20.299Z,135.00
2019-04-20T08:48:20.253Z,135.00
2019-04-20T08:49:19.392Z,135.00
2019-04-20T08:50:21.225Z,135.00
2019-04-20T08:51:12.160Z,135.00
2019-04-20T08:52:36.723Z,135.00
2019-04-20T08:53:21.950Z,135.00
2019-04-20T08:54:12.017Z,135.00
2019-04-20T08:55:09.296Z,135.00
2019-04-20T08:56:09.845Z,140.63
2019-04-20T08:56:59.642Z,135.00
2019-04-20T08:57:54.771Z,135.00
2019-04-20T08:58:55.081Z,140.63
2019-04-20T08:59:55.958Z,140.63
2019-04-20T09:01:01.612Z,140.63
2019-04-20T09:01:58.970Z,140.63
2019-04-20T09:03:02.324Z,140.63
2019-04-20T09:04:04.712Z,140.63
2019-04-20T09:05:02.443Z,140.63
2019-04-20T09:06:04.608Z,140.63
2019-04-20T09:07:06.424Z,140.63
2019-04-20T09:08:05.453Z,140.63
2019-04-20T09:09:11.671Z,140.63
2019-04-20T09:10:16.568Z,140.63
2019-04-20T09:11:10.000Z,140.63
2019-04-20T09:12:11.937Z,140.63
2019-04-20T09:13:08.366Z,140.63
2019-04-20T09:13:58.425Z,140.63
2019-04-20T09:14:55.269Z,140.63
2019-04-20T09:15:55.647Z,140.63
2019-04-20T09:16:59.769Z,140.63
2019-04-20T09:18:00.987Z,135.00
2019-04-20T09:19:03.645Z,140.63
2019-04-20T09:20:06.057Z,140.63
2019-04-20T09:21:05.459Z,140.63
2019-04-20T09:22:03.221Z,140.63
2019-04-20T09:23:13.506Z,135.00
2019-04-20T09:24:22.945Z,140.63
2019-04-20T09:25:37.666Z,140.63
2019-04-20T09:26:29.418Z,135.00
2019-04-20T09:27:10.343Z,140.63
2019-04-20T09:28:07.161Z,140.63
2019-04-20T09:29:06.864Z,140.63
2019-04-20T09:30:09.099Z,140.63
2019-04-20T09:31:13.254Z,135.00
2019-04-20T09:32:11.345Z,140.63
2019-04-20T09:33:15.631Z,140.63
2019-04-20T09:35:13.598Z,135.00
2019-04-20T09:36:09.788Z,135.00
2019-04-20T09:37:16.102Z,135.00
2019-04-20T09:38:12.284Z,135.00
2019-04-20T09:39:07.824Z,135.00
2019-04-20T09:40:14.274Z,135.00
2019-04-20T09:42:01.114Z,135.00
2019-04-20T09:42:55.772Z,135.00
2019-04-20T09:43:56.156Z,135.00
2019-04-20T09:44:59.723Z,135.00
2019-04-20T09:46:01.377Z,135.00
2019-04-20T09:46:59.182Z,135.00
2019-04-20T09:47:57.095Z,135.00
2019-04-20T09:48:59.790Z,135.00
2019-04-20T09:50:09.013Z,135.00
2019-04-20T09:51:16.745Z,135.00
2019-04-20T09:52:10.910Z,135.00
2019-04-20T09:53:09.510Z,135.00
2019-04-20T09:54:17.574Z,135.00
2019-04-20T09:55:10.680Z,129.38
2019-04-20T09:56:14.368Z,135.00
2019-04-20T09:57:13.316Z,129.38
2019-04-20T09:58:11.273Z,129.38
2019-04-20T09:59:18.446Z,129.38
2019-04-20T10:00:11.878Z,129.38
2019-04-20T10:01:09.967Z,129.38
2019-04-20T10:02:06.680Z,129.38
2019-04-20T10:02:56.247Z,129.38
2019-04-20T10:03:57.071Z,129.38
2019-04-20T10:04:57.641Z,129.38
2019-04-20T10:05:56.327Z,129.38
2019-04-20T10:07:01.110Z,129.38
2019-04-20T10:07:59.928Z,129.38
2019-04-20T10:09:00.081Z,129.38
2019-04-20T10:09:57.778Z,129.38
2019-04-20T10:10:56.443Z,129.38
2019-04-20T10:11:57.565Z,129.38
2019-04-20T10:12:56.488Z,129.38
2019-04-20T10:13:56.546Z,129.38
2019-04-20T10:14:57.601Z,135.00
2019-04-20T10:15:57.689Z,123.75
2019-04-20T10:16:57.875Z,129.38
2019-04-20T10:17:56.609Z,123.75
2019-04-20T10:18:56.949Z,123.75
2019-04-20T10:19:57.749Z,123.75
2019-04-20T10:20:57.950Z,123.75
2019-04-20T10:21:57.008Z,123.75
2019-04-20T10:22:56.732Z,123.75
2019-04-20T10:23:56.753Z,123.75
2019-04-20T10:24:57.186Z,123.75
2019-04-20T10:25:56.801Z,123.75
2019-04-20T10:26:56.825Z,123.75
2019-04-20T10:27:57.790Z,123.75
2019-04-20T10:28:57.476Z,123.75
2019-04-20T10:29:58.383Z,123.75
2019-04-20T10:30:56.924Z,123.75
2019-04-20T10:31:59.234Z,123.75
2019-04-20T10:32:57.487Z,123.75
2019-04-20T10:33:57.616Z,123.75
2019-04-20T10:34:57.022Z,123.75
2019-04-20T10:35:57.454Z,123.75
2019-04-20T10:36:57.554Z,123.75
2019-04-20T10:37:57.626Z,123.75
2019-04-20T10:38:58.246Z,123.75
2019-04-20T10:39:58.441Z,123.75
2019-04-20T10:41:06.114Z,123.75
2019-04-20T10:42:00.782Z,118.13
2019-04-20T10:42:59.792Z,118.13
2019-04-20T10:43:58.664Z,118.13
2019-04-20T10:44:59.432Z,129.38
2019-04-20T10:45:57.292Z,118.13
2019-04-20T10:46:58.684Z,123.75
2019-04-20T10:47:57.339Z,118.13
2019-04-20T10:49:02.631Z,118.13
2019-04-20T10:49:58.805Z,118.13
2019-04-20T10:50:57.415Z,118.13
2019-04-20T10:51:57.829Z,118.13
2019-04-20T10:52:57.464Z,118.13
2019-04-20T10:53:58.301Z,118.13
2019-04-20T10:54:58.665Z,123.75
2019-04-20T10:55:57.819Z,118.13
2019-04-20T10:56:57.562Z,118.13
2019-04-20T10:57:57.748Z,118.13
2019-04-20T10:58:57.982Z,123.75
2019-04-20T10:59:57.650Z,123.75
2019-04-20T11:00:57.762Z,123.75
2019-04-20T11:01:58.102Z,123.75
2019-04-20T11:02:57.707Z,118.13
2019-04-20T11:03:58.733Z,123.75
2019-04-20T11:04:58.838Z,123.75
2019-04-20T11:05:58.542Z,123.75
2019-04-20T11:06:58.678Z,123.75
2019-04-20T11:07:58.778Z,123.75
2019-04-20T11:08:58.553Z,123.75
2019-04-20T11:10:08.002Z,123.75
2019-04-20T11:11:09.334Z,123.75
2019-04-20T11:11:58.715Z,123.75
2019-04-20T11:12:59.151Z,123.75
2019-04-20T11:14:01.968Z,118.13
2019-04-20T11:14:58.693Z,118.13
2019-04-20T11:15:58.031Z,118.13
2019-04-20T11:16:58.459Z,118.13
2019-04-20T11:17:59.398Z,118.13
2019-04-20T11:18:58.103Z,118.13
2019-04-20T11:19:59.200Z,118.13
2019-04-20T11:20:59.350Z,123.75
2019-04-20T11:21:58.581Z,123.75
2019-04-20T11:22:58.235Z,118.13
2019-04-20T11:23:58.475Z,118.13
2019-04-20T11:24:58.582Z,118.13
2019-04-20T11:25:58.272Z,118.13
2019-04-20T11:26:58.398Z,123.75
2019-04-20T11:27:58.567Z,118.13
2019-04-20T11:28:58.349Z,118.13
2019-04-20T11:29:58.373Z,118.13
2019-04-20T11:30:58.577Z,118.13
2019-04-20T11:31:59.469Z,118.13
2019-04-20T11:32:58.449Z,118.13
2019-04-20T11:33:58.720Z,118.13
2019-04-20T11:35:01.030Z,118.13
2019-04-20T11:35:59.120Z,118.13
2019-04-20T11:36:59.265Z,118.13
2019-04-20T11:37:58.872Z,123.75
2019-04-20T11:38:58.791Z,118.13
2019-04-20T11:39:59.077Z,118.13
2019-04-20T11:41:07.352Z,118.13
2019-04-20T11:41:59.498Z,118.13
2019-04-20T11:42:59.573Z,118.13
2019-04-20T11:43:59.772Z,118.13
2019-04-20T11:44:58.744Z,118.13
2019-04-20T11:45:58.766Z,118.13
2019-04-20T11:46:58.809Z,118.13
2019-04-20T11:47:58.819Z,118.13
2019-04-20T11:48:59.465Z,118.13
2019-04-20T11:49:59.566Z,118.13
2019-04-20T11:50:58.890Z,118.13
2019-04-20T11:51:59.474Z,118.13
2019-04-20T11:52:59.314Z,118.13
2019-04-20T11:53:58.966Z,118.13
2019-04-20T11:55:00.256Z,118.13
2019-04-20T11:56:00.342Z,118.13
2019-04-20T11:56:59.459Z,118.13
2019-04-20T11:57:59.071Z,118.13
2019-04-20T11:58:59.138Z,118.13
2019-04-20T11:59:59.341Z,118.13
2019-04-20T12:01:04.230Z,118.13
2019-04-20T12:02:03.697Z,118.13
2019-04-20T12:03:09.804Z,118.13
2019-04-20T12:04:09.302Z,118.13
2019-04-20T12:05:16.701Z,118.13
2019-04-20T12:06:03.187Z,118.13
2019-04-20T12:06:59.291Z,118.13
2019-04-20T12:08:00.742Z,118.13
2019-04-20T12:08:59.337Z,118.13
2019-04-20T12:10:09.172Z,118.13
2019-04-20T12:11:03.126Z,118.13
2019-04-20T12:12:11.991Z,118.13
2019-04-20T12:12:59.699Z,118.13
2019-04-20T12:14:00.670Z,118.13
2019-04-20T12:15:00.798Z,118.13
2019-04-20T12:15:59.539Z,118.13
2019-04-20T12:16:59.708Z,118.13
2019-04-20T12:17:59.854Z,118.13
2019-04-20T12:19:00.160Z,118.13
2019-04-20T12:19:59.943Z,118.13
2019-04-20T12:21:00.847Z,118.13
2019-04-20T12:22:00.042Z,118.13
2019-04-20T12:23:00.218Z,118.13
2019-04-20T12:24:00.383Z,118.13
2019-04-20T12:25:00.406Z,118.13
2019-04-20T12:25:59.898Z,118.13
2019-04-20T12:27:00.731Z,118.13
2019-04-20T12:28:01.894Z,118.13
2019-04-20T12:28:59.886Z,118.13
2019-04-20T12:29:59.863Z,118.13
2019-04-20T12:31:04.064Z,118.13
2019-04-20T12:32:02.284Z,118.13
2019-04-20T12:33:02.016Z,118.13
2019-04-20T12:34:00.236Z,118.13
2019-04-20T12:35:00.250Z,118.13
2019-04-20T12:36:00.398Z,118.13
2019-04-20T12:37:00.766Z,118.13
2019-04-20T12:38:00.976Z,118.13
2019-04-20T12:39:01.223Z,118.13
2019-04-20T12:40:00.809Z,118.13
2019-04-20T12:41:03.149Z,118.13
2019-04-20T12:42:03.958Z,118.13
2019-04-20T12:43:01.357Z,118.13
2019-04-20T12:44:01.631Z,118.13
2019-04-20T12:45:00.238Z,118.13
2019-04-20T12:46:00.262Z,118.13
2019-04-20T12:47:01.524Z,118.13
2019-04-20T12:48:01.686Z,118.13
2019-04-20T12:49:00.339Z,118.13
2019-04-20T12:50:01.382Z,118.13
2019-04-20T12:51:01.633Z,118.13
2019-04-20T12:52:03.561Z,118.13
2019-04-20T12:53:00.440Z,118.13
2019-04-20T12:54:00.639Z,118.13
2019-04-20T12:55:02.738Z,118.13
2019-04-20T12:56:00.514Z,118.13
2019-04-20T12:57:00.569Z,118.13
2019-04-20T12:58:00.672Z,118.13
2019-04-20T12:59:00.589Z,118.13
2019-04-20T13:00:01.667Z,118.13
2019-04-20T13:01:00.639Z,118.13
2019-04-20T13:02:01.627Z,118.13
2019-04-20T13:03:01.187Z,118.13
2019-04-20T13:04:02.962Z,118.13
2019-04-20T13:05:01.693Z,118.13
2019-04-20T13:06:01.839Z,118.13
2019-04-20T13:07:01.758Z,118.13
2019-04-20T13:08:02.585Z,118.13